Time;durP1;ratioP1;P1;durP2;ratioP2;P2;SDS_P1;SDS_P2;PMS_P1;PMS_P2;Temp;Humidity;BMP_temperature;BMP_pressure;BME280_temperature;BME280_humidity;BME280_pressure;Samples;Min_cycle;Max_cycle;Signal;HPM_P1;HPM_P2
2022/08/01 00:01:50;;;;;;;5.20;2.90;;;;;;;24.27;58.99;101582.47;5075770;28;20289;-71
2022/08/01 00:04:15;;;;;;;5.38;2.80;;;;;;;24.28;58.96;101580.66;5075431;28;20269;-71
2022/08/01 00:06:41;;;;;;;4.57;2.72;;;;;;;24.26;59.05;101585.28;5074820;28;20514;-71
2022/08/01 00:09:06;;;;;;;4.95;3.10;;;;;;;24.27;59.06;101581.63;5075091;28;20464;-71
2022/08/01 00:11:31;;;;;;;5.73;2.50;;;;;;;24.28;58.92;101577.97;5075698;28;20032;-71
2022/08/01 00:13:56;;;;;;;4.85;2.70;;;;;;;24.28;58.68;101583.31;5074407;28;20629;-71
2022/08/01 00:16:24;;;;;;;4.70;2.57;;;;;;;24.26;58.59;101586.13;5075297;28;20059;-71
2022/08/01 00:18:51;;;;;;;5.30;2.42;;;;;;;24.28;59.14;101585.97;5075394;28;20691;-71
2022/08/01 00:21:16;;;;;;;4.93;2.63;;;;;;;24.27;58.57;101585.16;5074182;28;20480;-71
2022/08/01 00:23:42;;;;;;;4.47;2.72;;;;;;;24.27;59.07;101582.47;5075569;28;20036;-71
2022/08/01 00:26:11;;;;;;;4.97;3.00;;;;;;;24.26;58.92;101591.44;5075217;28;20047;-71
2022/08/01 00:28:40;;;;;;;5.32;2.92;;;;;;;24.26;59.06;101590.63;5074485;28;20025;-71
2022/08/01 00:31:05;;;;;;;4.57;2.80;;;;;;;24.25;58.58;101584.44;5074896;28;20443;-71
2022/08/01 00:33:30;;;;;;;4.50;2.65;;;;;;;24.24;58.76;101589.91;5074688;28;20095;-71
2022/08/01 00:35:56;;;;;;;4.65;2.70;;;;;;;24.23;59.07;101589.06;5074045;28;20388;-71
2022/08/01 00:38:21;;;;;;;4.70;2.63;;;;;;;24.23;58.93;101591.75;5075346;28;20107;-71
2022/08/01 00:40:50;;;;;;;4.35;3.00;;;;;;;24.21;58.71;101585.72;5075039;28;20752;-71
2022/08/01 00:43:15;;;;;;;4.85;2.95;;;;;;;24.20;58.84;101589.38;5073943;28;20029;-71
2022/08/01 00:45:41;;;;;;;4.63;2.60;;;;;;;24.21;58.94;101591.06;5075181;28;20017;-71
2022/08/01 00:48:06;;;;;;;4.63;3.00;;;;;;;24.22;58.99;101595.38;5074530;28;20345;-71
2022/08/01 00:50:32;;;;;;;5.40;2.90;;;;;;;24.22;59.19;101591.88;5074153;28;20060;-71
2022/08/01 00:52:59;;;;;;;5.57;2.92;;;;;;;24.22;59.19;101595.38;5074682;28;20024;-71
2022/08/01 00:55:25;;;;;;;8.27;3.33;;;;;;;24.22;59.16;101594.56;5074658;28;20111;-71
2022/08/01 00:57:51;;;;;;;5.75;3.38;;;;;;;24.22;59.14;101597.22;5074121;28;20024;-72
2022/08/01 01:00:16;;;;;;;5.55;3.40;;;;;;;24.22;58.92;101600.69;5074417;28;20078;-71
2022/08/01 01:02:43;;;;;;;5.68;3.08;;;;;;;24.22;58.74;101597.22;5073744;28;20056;-71
2022/08/01 01:05:09;;;;;;;4.75;2.90;;;;;;;24.23;59.11;101596.25;5074476;28;20514;-71
2022/08/01 01:07:53;;;;;;;6.20;3.10;;;;;;;24.20;58.75;101592.03;5074475;28;20066;-71
2022/08/01 01:10:50;;;;;;;6.75;3.60;;;;;;;24.19;58.94;101592.19;5073625;28;20036;-71
2022/08/01 01:13:23;;;;;;;5.10;3.40;;;;;;;24.19;59.20;101590.34;5074189;28;20499;-71
2022/08/01 01:15:57;;;;;;;6.88;3.50;;;;;;;24.18;59.00;101596.69;5074439;28;20048;-71
2022/08/01 01:18:49;;;;;;;6.18;3.53;;;;;;;24.20;58.78;101593.88;5073724;28;20039;-70
2022/08/01 01:21:18;;;;;;;6.03;3.60;;;;;;;24.19;58.59;101593.00;5073944;28;20071;-71
2022/08/01 01:23:52;;;;;;;5.35;3.53;;;;;;;24.20;59.06;101592.03;5073485;28;20552;-71
2022/08/01 01:26:36;;;;;;;6.90;3.67;;;;;;;24.19;59.15;101594.84;5073986;28;20028;-71
2022/08/01 01:29:17;;;;;;;5.05;3.25;;;;;;;24.19;58.79;101592.19;5073956;28;20029;-71
2022/08/01 01:31:51;;;;;;;6.03;3.80;;;;;;;24.20;58.95;101593.88;5073300;28;20118;-71
2022/08/01 01:34:19;;;;;;;5.20;3.67;;;;;;;24.19;59.01;101595.66;5073759;28;20028;-72
2022/08/01 01:36:47;;;;;;;6.20;3.97;;;;;;;24.20;59.23;101585.88;5073848;28;20060;-71
2022/08/01 01:39:14;;;;;;;7.32;4.25;;;;;;;24.19;59.11;101585.00;5072870;28;20465;-71
2022/08/01 01:41:39;;;;;;;6.45;3.75;;;;;;;24.19;59.10;101589.50;5073752;28;20077;-71
2022/08/01 01:44:06;;;;;;;7.38;4.15;;;;;;;24.18;59.11;101585.16;5072684;28;20024;-71
2022/08/01 01:46:32;;;;;;;6.05;4.10;;;;;;;24.18;58.83;101593.16;5072905;28;20380;-71
2022/08/01 01:48:58;;;;;;;5.97;3.85;;;;;;;24.18;58.97;101588.69;5073574;28;20031;-71
2022/08/01 01:51:25;;;;;;;6.63;3.60;;;;;;;24.19;58.77;101584.19;5073606;28;20020;-71
2022/08/01 01:53:53;;;;;;;7.45;3.63;;;;;;;24.18;59.12;101587.81;5072927;28;20103;-71
2022/08/01 01:56:19;;;;;;;7.05;3.72;;;;;;;24.19;58.69;101592.19;5073513;28;20104;-71
2022/08/01 01:58:48;;;;;;;7.10;4.30;;;;;;;24.19;59.04;101592.19;5073162;28;20119;-71
2022/08/01 02:01:14;;;;;;;6.80;3.90;;;;;;;24.16;58.73;101585.31;5072582;28;20028;-71
2022/08/01 02:03:41;;;;;;;6.05;4.10;;;;;;;24.17;58.80;101589.66;5073636;28;20032;-71
2022/08/01 02:06:07;;;;;;;5.82;3.55;;;;;;;24.17;59.06;101591.50;5072468;28;20024;-71
2022/08/01 02:08:35;;;;;;;5.55;3.47;;;;;;;24.17;58.69;101589.66;5073386;28;20099;-71
2022/08/01 02:11:17;;;;;;;6.25;3.58;;;;;;;24.15;58.59;101588.97;5073103;28;20078;-71
2022/08/01 02:13:44;;;;;;;5.90;3.67;;;;;;;24.15;58.77;101583.66;5072486;28;20031;-71
2022/08/01 02:16:15;;;;;;;6.70;4.00;;;;;;;24.16;59.04;101585.31;5072785;28;20072;-71
2022/08/01 02:18:41;;;;;;;5.78;3.92;;;;;;;24.16;58.79;101587.97;5073319;28;20032;-71
2022/08/01 02:21:13;;;;;;;6.20;3.97;;;;;;;24.16;58.74;101581.81;5072011;28;20024;-71
2022/08/01 02:23:40;;;;;;;7.05;3.75;;;;;;;24.15;58.94;101593.44;5073106;28;20016;-71
2022/08/01 02:26:12;;;;;;;5.90;3.50;;;;;;;24.16;58.75;101587.16;5072783;28;20063;-71
2022/08/01 02:28:49;;;;;;;5.90;3.90;;;;;;;24.16;59.07;101584.47;5072623;28;20016;-71
2022/08/01 02:31:19;;;;;;;6.78;3.90;;;;;;;24.15;58.85;101588.13;5072893;28;20056;-71
2022/08/01 02:33:48;;;;;;;5.70;3.40;;;;;;;24.14;58.95;101591.78;5073156;28;20062;-71
2022/08/01 02:36:16;;;;;;;6.57;4.20;;;;;;;24.13;58.74;101590.94;5071785;28;20055;-71
2022/08/01 02:38:44;;;;;;;6.20;3.90;;;;;;;24.11;58.77;101592.91;5072826;28;20055;-71
2022/08/01 02:41:16;;;;;;;5.60;3.75;;;;;;;24.12;59.09;101588.44;5071954;28;20378;-71
2022/08/01 02:43:45;;;;;;;5.20;3.83;;;;;;;24.11;58.63;101586.75;5073150;28;20027;-71
2022/08/01 02:46:17;;;;;;;6.05;3.72;;;;;;;24.12;58.68;101591.09;5072545;28;20021;-71
2022/08/01 02:48:47;;;;;;;7.57;4.00;;;;;;;24.11;58.75;101587.56;5072139;28;20357;-71
2022/08/01 02:51:15;;;;;;;7.05;3.85;;;;;;;24.12;58.82;101585.78;5072503;28;20099;-71
2022/08/01 02:53:42;;;;;;;5.90;3.53;;;;;;;24.11;58.87;101586.75;5072913;28;20028;-71
2022/08/01 02:56:09;;;;;;;7.63;3.90;;;;;;;24.09;58.84;101584.22;5071779;28;20039;-71
2022/08/01 02:58:37;;;;;;;6.00;3.88;;;;;;;24.11;58.88;101592.91;5072798;28;20066;-71
2022/08/01 03:01:05;;;;;;;6.65;3.83;;;;;;;24.11;59.08;101586.75;5072217;28;20675;-71
2022/08/01 03:03:31;;;;;;;5.57;3.63;;;;;;;24.09;58.98;101586.91;5071892;28;20501;-71
2022/08/01 03:05:58;;;;;;;7.03;4.25;;;;;;;24.10;59.09;101588.59;5072445;28;20134;-71
2022/08/01 03:08:27;;;;;;;5.20;3.60;;;;;;;24.09;58.63;101584.22;5072763;28;20028;-71
2022/08/01 03:10:55;;;;;;;6.00;3.88;;;;;;;24.08;59.11;101591.41;5071910;28;20078;-71
2022/08/01 03:13:21;;;;;;;6.40;4.50;;;;;;;24.09;58.98;101586.91;5072355;28;20024;-71
2022/08/01 03:15:48;;;;;;;5.60;3.70;;;;;;;24.09;58.71;101587.72;5072417;28;20036;-71
2022/08/01 03:18:15;;;;;;;6.30;3.95;;;;;;;24.07;59.07;101592.38;5071241;28;20502;-71
2022/08/01 03:20:42;;;;;;;5.97;3.83;;;;;;;24.07;58.74;101588.88;5072606;28;20103;-71
2022/08/01 03:23:10;;;;;;;5.53;3.60;;;;;;;24.07;59.16;101597.69;5072369;28;20365;-71
2022/08/01 03:25:39;;;;;;;5.53;3.90;;;;;;;24.06;59.02;101597.84;5071811;28;20021;-70
2022/08/01 03:28:06;;;;;;;5.13;3.53;;;;;;;24.06;58.80;101606.66;5072162;28;20384;-71
2022/08/01 03:30:33;;;;;;;6.57;4.00;;;;;;;24.07;58.78;101604.84;5071698;28;20030;-71
2022/08/01 03:32:59;;;;;;;6.28;4.20;;;;;;;24.06;59.00;101600.50;5072030;28;20028;-71
2022/08/01 03:35:33;;;;;;;6.05;3.83;;;;;;;24.05;58.66;101597.00;5072307;28;20100;-71
2022/08/01 03:38:00;;;;;;;6.97;3.88;;;;;;;24.06;58.74;101595.19;5071342;28;20081;-71
2022/08/01 03:40:48;;;;;;;6.30;4.30;;;;;;;24.04;59.06;101597.97;5072565;28;20029;-71
2022/08/01 03:43:18;;;;;;;5.60;3.70;;;;;;;24.05;58.66;101593.47;5072159;28;20044;-71
2022/08/01 03:45:49;;;;;;;5.38;3.90;;;;;;;24.05;58.64;101602.34;5071847;28;20021;-71
2022/08/01 03:48:17;;;;;;;5.82;4.07;;;;;;;24.05;59.04;101602.34;5072123;28;20036;-70
2022/08/01 03:50:47;;;;;;;6.00;4.13;;;;;;;24.05;58.73;101599.66;5072244;28;20024;-71
2022/08/01 03:53:14;;;;;;;7.22;4.47;;;;;;;24.06;59.14;101608.47;5071191;28;20032;-71
2022/08/01 03:55:42;;;;;;;5.43;3.83;;;;;;;24.06;58.93;101600.50;5072121;28;20025;-71
2022/08/01 03:58:08;;;;;;;6.70;4.03;;;;;;;24.06;58.73;101593.34;5072096;28;20028;-71
2022/08/01 04:00:38;;;;;;;7.03;4.40;;;;;;;24.07;58.91;101594.19;5071229;28;20025;-71
2022/08/01 04:03:04;;;;;;;5.88;3.90;;;;;;;24.06;58.45;101601.31;5071838;28;20028;-71
2022/08/01 04:05:32;;;;;;;5.70;4.30;;;;;;;24.05;58.53;101605.00;5071388;28;20484;-71
2022/08/01 04:07:59;;;;;;;5.68;3.90;;;;;;;24.06;58.86;101600.50;5073696;28;20525;-71
2022/08/01 04:10:28;;;;;;;6.22;4.15;;;;;;;24.05;58.99;101605.00;5075674;28;20047;-71
2022/08/01 04:12:53;;;;;;;6.82;4.40;;;;;;;24.03;58.95;101593.63;5075126;28;20024;-71
2022/08/01 04:15:20;;;;;;;6.63;4.35;;;;;;;24.05;58.63;101612.13;5075374;28;20094;-71
2022/08/01 04:17:45;;;;;;;6.88;4.65;;;;;;;24.05;58.54;101612.13;5075838;28;20024;-71
2022/08/01 04:20:11;;;;;;;5.82;4.35;;;;;;;24.04;58.53;101611.28;5074541;28;20024;-71
2022/08/01 04:22:36;;;;;;;5.80;3.92;;;;;;;24.05;58.50;101617.44;5075564;28;20032;-71
2022/08/01 04:25:07;;;;;;;6.82;4.20;;;;;;;24.03;58.46;101614.94;5075281;28;20203;-71
2022/08/01 04:27:37;;;;;;;6.63;4.15;;;;;;;24.04;58.82;101613.13;5074911;28;20039;-71
2022/08/01 04:30:04;;;;;;;6.50;4.18;;;;;;;24.03;58.63;101606.13;5075398;28;20039;-71
2022/08/01 04:32:33;;;;;;;6.70;4.18;;;;;;;24.04;58.86;101611.28;5075436;28;20048;-71
2022/08/01 04:35:02;;;;;;;7.03;4.60;;;;;;;24.03;58.49;101611.44;5074251;28;20021;-71
2022/08/01 04:37:32;;;;;;;6.00;3.88;;;;;;;24.03;58.83;101606.13;5074982;28;20036;-71
2022/08/01 04:39:59;;;;;;;7.32;4.30;;;;;;;24.02;58.71;101618.59;5075152;28;20101;-71
2022/08/01 04:42:24;;;;;;;6.93;4.32;;;;;;;24.03;58.44;101617.59;5074384;28;20151;-71
2022/08/01 04:44:49;;;;;;;6.97;4.50;;;;;;;24.03;58.56;101622.91;5075256;28;20111;-71
2022/08/01 04:47:15;;;;;;;6.07;4.13;;;;;;;24.02;58.63;101615.06;5074847;28;20118;-71
2022/08/01 04:49:41;;;;;;;7.13;3.90;;;;;;;24.03;58.62;101632.72;5074265;28;20264;-71
2022/08/01 04:52:07;;;;;;;7.03;4.35;;;;;;;24.02;58.52;101634.56;5074618;28;20028;-71
2022/08/01 04:54:38;;;;;;;6.97;4.03;;;;;;;24.00;58.64;101633.84;5075062;28;20024;-71
2022/08/01 04:57:05;;;;;;;7.22;4.38;;;;;;;24.03;58.47;101635.41;5074577;28;20025;-71
2022/08/01 04:59:40;;;;;;;7.53;4.05;;;;;;;24.02;58.29;101637.22;5075041;28;20123;-71
2022/08/01 05:02:11;;;;;;;6.32;4.28;;;;;;;24.03;58.24;101638.88;5073716;28;20093;-71
2022/08/01 05:04:37;;;;;;;6.20;4.32;;;;;;;24.04;58.63;101645.06;5075071;28;20479;-71
2022/08/01 05:07:03;;;;;;;7.07;4.57;;;;;;;24.04;58.49;101653.06;5074624;28;20228;-71
2022/08/01 05:09:32;;;;;;;6.25;4.10;;;;;;;24.04;58.36;101648.56;5074051;28;20029;-71
2022/08/01 05:11:58;;;;;;;6.25;4.13;;;;;;;24.04;58.35;101659.22;5074205;28;20020;-69
2022/08/01 05:14:27;;;;;;;6.72;4.60;;;;;;;24.05;58.73;101655.59;5074687;28;20016;-71
2022/08/01 05:16:52;;;;;;;14.13;8.90;;;;;;;23.97;59.91;101651.94;5073842;28;20045;-69
2022/08/01 05:19:18;;;;;;;11.13;6.37;;;;;;;23.80;59.92;101657.00;5072900;28;20434;-74
2022/08/01 05:21:46;;;;;;;6.75;4.30;;;;;;;23.75;59.96;101664.59;5074303;28;20296;-73
2022/08/01 05:24:12;;;;;;;6.30;3.67;;;;;;;23.79;59.22;101660.63;5073161;28;20464;-72
2022/08/01 05:26:38;;;;;;;7.10;3.85;;;;;;;23.84;59.01;101653.09;5074121;28;20025;-70
2022/08/01 05:29:03;;;;;;;5.97;3.85;;;;;;;23.89;58.91;101656.19;5072962;28;20044;-71
2022/08/01 05:31:29;;;;;;;6.15;4.15;;;;;;;23.94;59.26;101660.22;5073315;28;20039;-75
2022/08/01 05:34:02;;;;;;;6.88;3.72;;;;;;;23.91;59.14;101666.69;5074315;28;20024;-72
2022/08/01 05:36:29;;;;;;;6.88;3.45;;;;;;;23.94;59.25;101660.22;5073971;28;20578;-72
2022/08/01 05:38:57;;;;;;;5.15;3.03;;;;;;;23.97;58.87;101659.94;5073261;28;20066;-72
2022/08/01 05:41:22;;;;;;;4.90;3.17;;;;;;;24.01;58.38;101658.69;5073622;28;20415;-69
2022/08/01 05:43:48;;;;;;;6.77;3.20;;;;;;;24.02;58.95;101653.22;5073929;28;20024;-71
2022/08/01 05:46:13;;;;;;;5.90;3.42;;;;;;;24.06;58.39;101656.41;5072735;28;20265;-73
2022/08/01 05:48:38;;;;;;;6.13;3.20;;;;;;;24.09;58.52;101656.94;5073925;28;20473;-70
2022/08/01 05:51:04;;;;;;;6.38;3.28;;;;;;;24.10;58.38;101655.16;5072836;28;20352;-73
2022/08/01 05:53:29;;;;;;;7.60;3.35;;;;;;;24.12;58.42;101657.66;5073796;28;20024;-73
2022/08/01 05:55:55;;;;;;;5.00;3.00;;;;;;;24.14;58.21;101666.34;5073571;28;20020;-72
2022/08/01 05:58:20;;;;;;;5.43;2.72;;;;;;;24.13;58.60;101654.84;5072838;28;20112;-73
2022/08/01 06:00:45;;;;;;;5.93;2.92;;;;;;;24.14;58.62;101664.50;5073305;28;20491;-72
2022/08/01 06:03:17;;;;;;;5.25;2.60;;;;;;;24.16;58.48;101659.88;5073019;28;20107;-71
2022/08/01 06:05:42;;;;;;;5.45;2.60;;;;;;;24.19;58.15;101666.75;5072780;28;20115;-71
2022/08/01 06:08:07;;;;;;;4.88;2.53;;;;;;;24.23;58.53;101670.81;5072980;28;20447;-71
2022/08/01 06:10:36;;;;;;;4.45;2.50;;;;;;;24.24;58.13;101667.13;5073386;28;20028;-73
2022/08/01 06:13:02;;;;;;;4.47;2.30;;;;;;;24.24;58.38;101665.34;5072353;28;20028;-71
2022/08/01 06:15:29;;;;;;;4.75;2.60;;;;;;;24.27;58.04;101667.72;5072994;28;20407;-73
2022/08/01 06:17:55;;;;;;;4.93;2.40;;;;;;;24.29;58.32;101661.38;5073509;28;20021;-74
2022/08/01 06:20:20;;;;;;;5.55;2.38;;;;;;;24.30;58.05;101660.41;5072378;28;20460;-71
2022/08/01 06:22:45;;;;;;;5.15;2.63;;;;;;;24.30;58.29;101663.06;5073160;28;20590;-70
2022/08/01 06:25:11;;;;;;;4.47;2.20;;;;;;;24.31;57.83;101668.25;5072832;28;20541;-72
2022/08/01 06:27:36;;;;;;;6.55;2.30;;;;;;;24.31;58.13;101670.06;5072346;28;20407;-73
2022/08/01 06:30:03;;;;;;;5.82;2.40;;;;;;;24.31;58.33;101672.72;5072207;28;20483;-72
2022/08/01 06:32:29;;;;;;;4.60;2.13;;;;;;;24.32;58.33;101674.41;5073048;28;20040;-72
2022/08/01 06:34:54;;;;;;;5.20;2.10;;;;;;;24.33;57.75;101670.78;5072168;28;20024;-72
2022/08/01 06:37:20;;;;;;;4.90;2.53;;;;;;;24.31;57.90;101672.72;5072836;28;20021;-70
2022/08/01 06:39:45;;;;;;;4.72;2.17;;;;;;;24.30;57.85;101673.72;5073010;28;20107;-70
2022/08/01 06:42:14;;;;;;;5.37;2.10;;;;;;;24.31;57.57;101680.72;5071746;28;20095;-72
2022/08/01 06:44:39;;;;;;;5.00;2.15;;;;;;;24.30;57.96;101679.88;5072801;28;20277;-74
2022/08/01 06:47:05;;;;;;;3.78;2.00;;;;;;;24.31;57.56;101680.72;5072626;28;20021;-75
2022/08/01 06:49:30;;;;;;;3.70;2.17;;;;;;;24.33;57.96;101681.44;5072160;28;20021;-74
2022/08/01 06:51:55;;;;;;;5.50;2.10;;;;;;;24.33;57.76;101684.09;5072652;28;20107;-73
2022/08/01 06:54:21;;;;;;;6.65;2.10;;;;;;;24.32;57.80;101690.38;5071930;28;20268;-73
2022/08/01 06:56:46;;;;;;;7.15;2.15;;;;;;;24.32;57.60;101696.53;5072684;28;20614;-73
2022/08/01 06:59:11;;;;;;;4.75;2.10;;;;;;;24.34;57.68;101693.72;5072416;28;20016;-73
2022/08/01 07:01:36;;;;;;;4.77;2.37;;;;;;;24.32;57.42;101688.56;5071970;28;20040;-73
2022/08/01 07:04:02;;;;;;;4.70;2.03;;;;;;;24.30;57.42;101682.53;5072515;28;20269;-72
2022/08/01 07:06:28;;;;;;;5.00;2.30;;;;;;;24.26;57.88;101687.31;5072886;28;20313;-68
2022/08/01 07:08:53;;;;;;;5.82;2.00;;;;;;;24.15;57.95;101690.16;5071860;28;20031;-65
2022/08/01 07:11:20;;;;;;;7.90;2.25;;;;;;;24.04;58.53;101699.16;5074125;28;20456;-70
2022/08/01 07:13:45;;;;;;;4.78;2.10;;;;;;;24.06;58.80;101685.69;5073427;28;20029;-70
2022/08/01 07:16:11;;;;;;;6.05;2.22;;;;;;;24.11;58.74;101687.94;5071325;28;20557;-74
2022/08/01 07:18:37;;;;;;;6.03;1.95;;;;;;;24.16;58.75;101697.16;5072599;28;20060;-70
2022/08/01 07:21:02;;;;;;;4.13;1.85;;;;;;;24.21;58.18;101694.91;5072123;28;20058;-74
2022/08/01 07:23:27;;;;;;;5.37;1.60;;;;;;;24.28;58.49;101689.84;5071656;28;20380;-71
2022/08/01 07:25:52;;;;;;;3.83;1.70;;;;;;;24.35;58.54;101695.44;5072478;28;20281;-73
2022/08/01 07:28:18;;;;;;;7.97;2.05;;;;;;;24.40;58.26;101699.34;5072046;28;20020;-74
2022/08/01 07:30:44;;;;;;;6.77;1.67;;;;;;;24.46;58.01;101697.91;5071892;28;20021;-73
2022/08/01 07:33:09;;;;;;;3.78;1.50;;;;;;;24.51;57.51;101698.31;5072177;28;20617;-71
2022/08/01 07:35:37;;;;;;;4.05;1.50;;;;;;;24.57;57.29;101699.59;5072397;28;20025;-77
2022/08/01 07:38:03;;;;;;;39.65;3.47;;;;;;;24.59;56.61;101705.59;5071343;28;20036;-70
2022/08/01 07:40:31;;;;;;;11.23;1.90;;;;;;;24.58;56.40;101704.75;5072199;28;20144;-71
2022/08/01 07:42:56;;;;;;;15.00;2.50;;;;;;;24.55;56.45;101713.03;5073524;28;20494;-71
2022/08/01 07:45:22;;;;;;;30.67;3.03;;;;;;;24.54;56.57;101705.16;5075631;28;20059;-70
2022/08/01 07:47:49;;;;;;;10.93;1.60;;;;;;;24.51;56.29;101706.28;5076279;28;20349;-82
2022/08/01 07:50:18;;;;;;;4.70;1.30;;;;;;;24.48;56.28;101705.75;5075824;28;20070;-77
2022/08/01 07:52:44;;;;;;;3.15;1.20;;;;;;;24.40;56.17;101706.47;5075322;28;20028;-80
2022/08/01 07:55:10;;;;;;;3.60;1.20;;;;;;;24.31;56.06;101704.69;5075530;28;20025;-76
2022/08/01 07:57:36;;;;;;;5.45;1.25;;;;;;;24.24;56.42;101705.28;5075132;28;20153;-78
2022/08/01 08:00:09;;;;;;;7.60;1.33;;;;;;;24.20;56.67;101708.38;5075662;28;20123;-80
2022/08/01 08:02:34;;;;;;;3.40;0.90;;;;;;;24.21;56.30;101707.38;5075688;28;20364;-73
2022/08/01 08:04:59;;;;;;;11.40;1.27;;;;;;;24.20;55.62;101705.72;5074727;28;20078;-76
2022/08/01 08:07:25;;;;;;;6.00;1.20;;;;;;;24.18;55.91;101703.19;5075712;28;20052;-78
2022/08/01 08:09:50;;;;;;;3.03;1.30;;;;;;;24.19;56.84;101712.84;5075615;28;20269;-79
2022/08/01 08:12:15;;;;;;;2.40;1.13;;;;;;;24.18;56.38;101707.66;5074712;28;20861;-79
2022/08/01 08:14:40;;;;;;;2.38;1.10;;;;;;;24.15;56.15;101706.16;5075761;28;20012;-77
2022/08/01 08:17:09;;;;;;;2.65;1.08;;;;;;;24.15;55.56;101719.47;5075124;28;20040;-78
2022/08/01 08:19:36;;;;;;;3.03;1.08;;;;;;;24.12;54.94;101717.09;5074855;28;20021;-77
2022/08/01 08:22:05;;;;;;;2.88;1.10;;;;;;;24.11;56.05;101715.38;5075061;28;20387;-72
2022/08/01 08:24:30;;;;;;;3.15;1.20;;;;;;;24.06;56.44;101720.31;5075346;28;20025;-79
2022/08/01 08:26:59;;;;;;;4.75;1.40;;;;;;;24.06;56.48;101715.81;5074460;28;20085;-74
2022/08/01 08:29:26;;;;;;;1.95;1.00;;;;;;;24.01;56.58;101715.41;5075061;28;20062;-73
2022/08/01 08:31:52;;;;;;;2.25;1.27;;;;;;;23.99;58.01;101724.50;5075488;28;20036;-77
2022/08/01 08:34:18;;;;;;;2.38;1.13;;;;;;;23.92;56.11;101718.94;5074888;28;20024;-84
2022/08/01 08:36:44;;;;;;;2.17;1.10;;;;;;;23.84;55.79;101722.28;5075120;28;20472;-77
2022/08/01 08:39:09;;;;;;;2.72;1.10;;;;;;;23.81;57.19;101716.38;5074780;28;20468;-76
2022/08/01 08:41:35;;;;;;;2.83;1.33;;;;;;;23.86;57.17;101717.69;5074419;28;20054;-73
2022/08/01 08:44:08;;;;;;;1.52;1.00;;;;;;;23.98;56.80;101720.19;5074925;28;20359;-78
2022/08/01 08:46:48;;;;;;;5.00;1.20;;;;;;;24.10;56.21;101711.06;5075484;28;20030;-85
2022/08/01 08:49:22;;;;;;;2.47;0.88;;;;;;;24.22;56.21;101715.22;5074806;28;20032;-75
2022/08/01 08:51:49;;;;;;;5.40;1.27;;;;;;;24.29;55.74;101711.97;5075410;28;20107;-75
2022/08/01 08:54:16;;;;;;;1.73;1.00;;;;;;;24.33;55.68;101713.38;5073696;28;20436;-70
2022/08/01 08:56:44;;;;;;;2.63;1.33;;;;;;;24.36;55.42;101716.59;5074997;28;20027;-68
2022/08/01 08:59:12;;;;;;;2.40;0.98;;;;;;;24.39;55.56;101715.47;5074508;28;20077;-65
2022/08/01 09:01:38;;;;;;;1.90;1.00;;;;;;;24.38;55.24;101719.94;5073873;28;20052;-66
2022/08/01 09:04:04;;;;;;;2.25;0.95;;;;;;;24.41;55.57;101721.50;5074292;28;20410;-66
2022/08/01 09:06:30;;;;;;;3.03;0.90;;;;;;;24.42;55.20;101724.00;5074505;28;20456;-66
2022/08/01 09:08:56;;;;;;;1.55;0.90;;;;;;;24.47;55.15;101717.38;5073749;28;20472;-68
2022/08/01 09:11:21;;;;;;;6.20;1.10;;;;;;;24.47;55.55;101720.91;5074959;28;20474;-74
2022/08/01 09:14:08;;;;;;;2.10;0.80;;;;;;;24.49;55.37;101726.09;5074571;28;20150;-72
2022/08/01 09:16:34;;;;;;;4.20;1.55;;;;;;;24.50;55.67;101731.28;5073437;28;20123;-71
2022/08/01 09:19:12;;;;;;;2.25;1.10;;;;;;;24.54;55.43;101732.66;5074012;28;20091;-75
2022/08/01 09:21:38;;;;;;;1.70;0.82;;;;;;;24.58;55.09;101731.41;5074631;28;20078;-75
2022/08/01 09:24:15;;;;;;;2.50;1.00;;;;;;;24.65;54.77;101729.00;5073269;28;20021;-80
2022/08/01 09:26:41;;;;;;;2.88;0.80;;;;;;;24.71;54.78;101727.59;5074214;28;20032;-79
2022/08/01 09:29:16;;;;;;;3.85;1.13;;;;;;;24.74;54.86;101736.13;5073122;28;20069;-72
2022/08/01 09:31:46;;;;;;;5.72;1.10;;;;;;;24.76;54.70;101739.47;5074373;28;20090;-73
2022/08/01 09:34:16;;;;;;;3.72;1.17;;;;;;;24.79;54.58;101727.69;5073767;28;20024;-76
2022/08/01 09:37:06;;;;;;;2.83;0.95;;;;;;;24.81;54.00;101742.53;5073333;28;20025;-76
2022/08/01 09:39:42;;;;;;;2.28;1.10;;;;;;;24.85;53.53;101737.75;5073855;28;20028;-75
2022/08/01 09:42:25;;;;;;;2.42;1.20;;;;;;;24.90;54.08;101729.31;5073842;28;20033;-77
2022/08/01 09:44:50;;;;;;;2.22;0.80;;;;;;;24.94;53.55;101728.88;5073330;28;20024;-77
2022/08/01 09:47:18;;;;;;;1.52;0.70;;;;;;;24.95;53.50;101729.72;5073524;28;20020;-72
2022/08/01 09:49:45;;;;;;;1.77;0.88;;;;;;;24.98;53.57;101726.75;5073671;28;20037;-71
2022/08/01 09:52:36;;;;;;;2.70;0.90;;;;;;;25.06;53.52;101731.34;5072547;28;20017;-70
2022/08/01 09:55:07;;;;;;;1.63;0.70;;;;;;;25.08;53.46;101726.69;5068751;28;20105;-71
2022/08/01 09:57:38;;;;;;;4.88;1.00;;;;;;;25.09;53.39;101736.38;5072943;28;20032;-71
2022/08/01 10:00:04;;;;;;;3.05;0.90;;;;;;;25.10;53.19;101738.03;5073321;28;20032;-71
2022/08/01 10:02:33;;;;;;;2.53;0.90;;;;;;;25.10;53.29;101735.38;5073414;28;20039;-71
2022/08/01 10:05:00;;;;;;;3.83;0.80;;;;;;;25.10;53.07;101735.38;5071591;28;20464;-68
2022/08/01 10:07:25;;;;;;;2.10;0.93;;;;;;;25.06;52.30;101734.00;5073478;28;20037;-72
2022/08/01 10:09:51;;;;;;;1.30;0.80;;;;;;;25.04;52.59;101734.16;5073478;28;20031;-72
2022/08/01 10:12:19;;;;;;;1.65;0.82;;;;;;;25.04;52.41;101736.81;5072296;28;20056;-73
2022/08/01 10:14:47;;;;;;;1.95;0.75;;;;;;;25.03;52.12;101737.78;5073253;28;20027;-71
2022/08/01 10:17:19;;;;;;;2.38;0.82;;;;;;;24.99;52.03;101737.25;5072611;28;20496;-71
2022/08/01 10:19:45;;;;;;;2.45;1.00;;;;;;;24.95;51.94;101743.03;5072631;28;20108;-71
2022/08/01 10:22:17;;;;;;;1.85;0.85;;;;;;;24.91;52.31;101741.63;5072434;28;20043;-72
2022/08/01 10:24:46;;;;;;;3.88;0.95;;;;;;;24.83;53.19;101750.38;5076915;28;20036;-74
2022/08/01 10:27:13;;;;;;;2.40;0.90;;;;;;;24.77;52.97;101748.31;5074172;28;20107;-71
2022/08/01 10:30:03;;;;;;;1.52;0.70;;;;;;;24.75;52.06;101750.28;5073903;28;20020;-73
2022/08/01 10:32:30;;;;;;;1.70;0.80;;;;;;;24.77;52.61;101749.16;5072526;28;20028;-74
2022/08/01 10:34:56;;;;;;;2.17;1.00;;;;;;;24.81;52.74;101755.03;5072641;28;20503;-71
2022/08/01 10:37:22;;;;;;;3.08;1.13;;;;;;;24.83;53.75;101752.22;5073009;28;20453;-75
2022/08/01 10:39:53;;;;;;;1.35;0.90;;;;;;;24.85;53.44;101760.88;5072038;28;20044;-72
2022/08/01 10:42:18;;;;;;;3.38;1.02;;;;;;;24.90;53.52;101758.66;5072641;28;20024;-72
2022/08/01 10:44:47;;;;;;;2.30;1.00;;;;;;;24.93;53.58;101750.34;5072853;28;20059;-78
2022/08/01 10:47:17;;;;;;;2.65;1.10;;;;;;;24.94;53.68;101752.88;5072132;28;20356;-79
2022/08/01 10:49:49;;;;;;;6.65;1.35;;;;;;;24.92;54.09;101741.50;5072894;28;20024;-75
2022/08/01 10:52:18;;;;;;;4.93;1.10;;;;;;;24.85;53.85;101753.75;5072648;28;20048;-74
2022/08/01 10:54:44;;;;;;;1.83;0.80;;;;;;;24.82;53.68;101754.03;5072081;28;20107;-76
2022/08/01 10:57:10;;;;;;;3.47;1.17;;;;;;;24.79;53.38;101752.50;5072648;28;20116;-77
2022/08/01 10:59:46;;;;;;;2.97;0.90;;;;;;;24.75;53.41;101764.47;5072722;28;20448;-79
2022/08/01 11:02:56;;;;;;;5.10;1.10;;;;;;;24.71;53.88;101768.38;5071571;28;20112;-80
2022/08/01 11:05:23;;;;;;;3.15;1.20;;;;;;;24.77;54.12;101772.31;5061379;28;20078;-83
2022/08/01 11:07:52;;;;;;;2.25;0.93;;;;;;;24.83;54.62;101762.88;5071961;28;20032;-74
2022/08/01 11:10:42;;;;;;;3.13;1.30;;;;;;;24.90;54.51;101769.31;5072463;28;20024;-76
2022/08/01 11:13:08;;;;;;;3.17;0.90;;;;;;;24.92;53.59;101781.47;5072324;28;20078;-73
2022/08/01 11:15:35;;;;;;;1.85;0.85;;;;;;;24.93;52.98;101780.50;5071707;28;20439;-73
2022/08/01 11:18:03;;;;;;;2.33;0.80;;;;;;;24.94;53.43;101782.19;5076028;28;20067;-74
2022/08/01 11:20:35;;;;;;;2.15;1.00;;;;;;;24.92;53.41;101781.47;5076741;28;20020;-81
2022/08/01 11:23:00;;;;;;;6.50;1.00;;;;;;;24.86;53.69;101786.56;5075838;28;20028;-80
2022/08/01 11:25:37;;;;;;;3.83;1.00;;;;;;;24.81;53.45;101787.00;5076801;28;20107;-77
2022/08/01 11:28:17;;;;;;;3.03;0.80;;;;;;;24.79;53.37;101784.50;5076317;28;20774;-77
2022/08/01 11:30:44;;;;;;;3.67;0.80;;;;;;;24.79;53.71;101795.16;5075966;28;20034;-77